Time;durP1;ratioP1;P1;durP2;ratioP2;P2;SDS_P1;SDS_P2;PMS_P1;PMS_P2;Temp;Humidity;BMP_temperature;BMP_pressure;BME280_temperature;BME280_humidity;BME280_pressure;Samples;Min_cycle;Max_cycle;Signal;HPM_P1;HPM_P2
2022/01/13 00:01:04;;;;;;;145.17;67.43;;;38.70;2201.60;;;;;;5014694;28;19905;-66
2022/01/13 00:03:30;;;;;;;140.33;69.70;;;38.80;2201.60;;;;;;5014917;28;20030;-66
2022/01/13 00:05:55;;;;;;;127.13;64.13;;;38.90;2201.60;;;;;;5014095;28;20060;-74
2022/01/13 00:08:21;;;;;;;119.23;60.03;;;38.90;2201.60;;;;;;5014578;28;20088;-67
2022/01/13 00:10:47;;;;;;;119.63;58.97;;;39.00;2201.60;;;;;;5014703;28;20029;-73
2022/01/13 00:13:22;;;;;;;131.50;65.60;;;38.90;2201.60;;;;;;5014516;28;20029;-66
2022/01/13 00:16:12;;;;;;;121.37;61.87;;;39.00;2201.60;;;;;;5014545;28;20030;-73
2022/01/13 00:18:39;;;;;;;121.73;61.53;;;39.00;2201.60;;;;;;5013854;28;20459;-66
2022/01/13 00:21:29;;;;;;;123.60;60.10;;;39.00;2201.60;;;;;;5014468;28;20026;-74
2022/01/13 00:23:59;;;;;;;119.10;58.43;;;39.10;2201.60;;;;;;5013951;28;20034;-74
2022/01/13 00:26:26;;;;;;;117.13;56.20;;;39.00;2201.60;;;;;;5014107;28;20041;-74
2022/01/13 00:28:54;;;;;;;116.93;58.77;;;38.90;2201.60;;;;;;5014527;28;20379;-67
2022/01/13 00:31:26;;;;;;;131.27;61.80;;;38.90;2201.60;;;;;;5014107;28;20030;-65
2022/01/13 00:33:54;;;;;;;122.77;60.00;;;38.90;2201.60;;;;;;5014259;28;20065;-66
2022/01/13 00:36:26;;;;;;;120.90;58.87;;;38.90;2201.60;;;;;;5013936;28;20049;-66
2022/01/13 00:38:53;;;;;;;114.00;56.47;;;38.90;2201.60;;;;;;5014080;28;20026;-66
2022/01/13 00:41:19;;;;;;;119.13;57.30;;;38.90;2201.60;;;;;;5014084;28;20028;-70
2022/01/13 00:43:47;;;;;;;109.33;54.87;;;38.90;2201.60;;;;;;5014013;28;20483;-66
2022/01/13 00:46:20;;;;;;;115.23;56.27;;;38.80;2201.60;;;;;;5013601;28;20478;-66
2022/01/13 00:48:46;;;;;;;112.93;54.55;;;38.80;2201.60;;;;;;5014150;28;20166;-65
2022/01/13 00:51:12;;;;;;;105.43;53.30;;;38.80;2201.60;;;;;;5014386;28;20060;-65
2022/01/13 00:53:38;;;;;;;103.73;53.00;;;39.00;2201.60;;;;;;5020887;28;20060;-74
2022/01/13 00:56:04;;;;;;;111.83;52.77;;;39.00;2201.60;;;;;;5032990;28;20029;-74
2022/01/13 00:58:32;;;;;;;106.23;52.13;;;39.00;2201.60;;;;;;5033634;28;20084;-73
2022/01/13 01:00:59;;;;;;;105.73;49.83;;;39.00;2201.60;;;;;;5033445;28;20022;-74
2022/01/13 01:03:26;;;;;;;98.77;50.67;;;39.00;2201.60;;;;;;5033566;28;20022;-67
2022/01/13 01:05:54;;;;;;;102.53;50.27;;;38.90;2201.60;;;;;;5033425;28;20041;-68
2022/01/13 01:08:20;;;;;;;103.43;50.23;;;39.00;2201.60;;;;;;5033340;28;20024;-67
2022/01/13 01:10:49;;;;;;;111.83;51.37;;;39.10;2201.60;;;;;;5033545;28;20445;-74
2022/01/13 01:13:19;;;;;;;106.57;51.53;;;39.10;2201.60;;;;;;5033561;28;20378;-74
2022/01/13 01:15:50;;;;;;;105.73;52.20;;;39.10;2201.60;;;;;;5033254;28;20082;-67
2022/01/13 01:21:04;;;;;;;104.88;50.42;;;39.00;2201.60;;;;;;5033039;28;20359;-67
2022/01/13 01:23:36;;;;;;;101.97;49.37;;;39.00;2201.60;;;;;;5033140;28;20033;-67
2022/01/13 01:26:20;;;;;;;111.40;53.97;;;39.10;2201.60;;;;;;5033051;28;20367;-68
2022/01/13 01:28:48;;;;;;;110.57;52.58;;;39.10;2201.60;;;;;;5033053;28;20029;-67
2022/01/13 01:31:15;;;;;;;116.67;54.83;;;39.20;2201.60;;;;;;5033406;28;20512;-67
2022/01/13 01:33:50;;;;;;;110.30;54.10;;;39.20;2201.60;;;;;;5032877;28;20525;-74
2022/01/13 01:36:16;;;;;;;110.97;52.90;;;39.20;2201.60;;;;;;5036743;28;20028;-73
2022/01/13 01:38:47;;;;;;;100.87;50.93;;;39.30;2201.60;;;;;;5037075;28;20413;-68
2022/01/13 01:41:13;;;;;;;100.83;48.97;;;;;;;;;;5037486;28;20409;-68
2022/01/13 01:43:40;;;;;;;98.83;46.40;;;;;;;;;;5019471;28;20105;-67
2022/01/13 01:46:06;;;;;;;98.17;47.13;;;39.00;2201.60;;;;;;5037272;28;20042;-67
2022/01/13 01:48:36;;;;;;;94.10;46.60;;;39.10;2201.60;;;;;;5036858;28;20387;-69
2022/01/13 01:51:04;;;;;;;97.90;49.20;;;39.10;2201.60;;;;;;5036887;28;20033;-69
2022/01/13 01:53:31;;;;;;;99.57;46.23;;;39.10;2201.60;;;;;;5036691;28;20052;-75
2022/01/13 01:55:57;;;;;;;100.70;48.07;;;39.10;2201.60;;;;;;5036992;28;20036;-71
2022/01/13 01:58:28;;;;;;;94.13;45.93;;;39.10;2201.60;;;;;;5036716;28;20467;-68
2022/01/13 02:00:55;;;;;;;92.40;45.67;;;39.20;2201.60;;;;;;5036953;28;20104;-68
2022/01/13 02:03:23;;;;;;;87.23;45.90;;;39.20;2201.60;;;;;;5036838;28;20520;-68
2022/01/13 02:05:49;;;;;;;85.53;43.57;;;39.20;2201.60;;;;;;5036639;28;20037;-75
2022/01/13 02:08:15;;;;;;;89.67;43.93;;;39.20;2201.60;;;;;;5036650;28;20028;-68
2022/01/13 02:10:44;;;;;;;94.53;45.53;;;39.10;2201.60;;;;;;5036632;28;20071;-67
2022/01/13 02:13:13;;;;;;;90.03;44.33;;;39.10;2201.60;;;;;;5036603;28;20057;-75
2022/01/13 02:16:00;;;;;;;86.53;43.60;;;39.10;2201.60;;;;;;5036526;28;20076;-75
2022/01/13 02:18:30;;;;;;;92.80;44.33;;;39.10;2201.60;;;;;;5036426;28;20478;-68
2022/01/13 02:20:56;;;;;;;92.23;46.20;;;39.10;2201.60;;;;;;5036141;28;20024;-75
2022/01/13 02:23:37;;;;;;;95.70;47.27;;;39.10;2201.60;;;;;;5036590;28;20038;-67
2022/01/13 02:26:06;;;;;;;95.23;45.73;;;39.10;2201.60;;;;;;5036463;28;20064;-68
2022/01/13 02:28:34;;;;;;;95.13;47.03;;;39.10;2201.60;;;;;;5036339;28;20025;-67
2022/01/13 02:31:01;;;;;;;94.33;46.83;;;39.10;2201.60;;;;;;5036201;28;20025;-74
2022/01/13 02:33:27;;;;;;;94.37;46.30;;;39.10;2201.60;;;;;;5036366;28;20532;-68
2022/01/13 02:35:53;;;;;;;94.63;45.63;;;39.10;2201.60;;;;;;5036177;28;20580;-68
2022/01/13 02:38:19;;;;;;;94.80;46.63;;;39.20;2201.60;;;;;;5036122;28;20059;-71
2022/01/13 02:40:53;;;;;;;87.07;44.87;;;39.20;2201.60;;;;;;5035832;28;20040;-73
2022/01/13 02:43:19;;;;;;;83.68;41.53;;;39.20;2201.60;;;;;;5036028;28;20029;-67
2022/01/13 02:46:03;;;;;;;81.47;41.67;;;39.30;2201.60;;;;;;5035879;28;20539;-68
2022/01/13 02:48:30;;;;;;;81.97;39.47;;;39.30;2201.60;;;;;;5035388;28;20033;-68
2022/01/13 02:50:58;;;;;;;83.37;40.23;;;39.30;2201.60;;;;;;5035783;28;20036;-75
2022/01/13 02:53:24;;;;;;;80.40;41.53;;;39.30;2201.60;;;;;;5035719;28;20060;-68
2022/01/13 02:55:54;;;;;;;78.67;39.20;;;39.30;2201.60;;;;;;5035692;28;20471;-75
2022/01/13 02:58:20;;;;;;;83.93;42.07;;;39.20;2201.60;;;;;;5035745;28;20022;-75
2022/01/13 03:00:46;;;;;;;88.87;43.93;;;39.20;2201.60;;;;;;5035363;28;20030;-67
2022/01/13 03:03:12;;;;;;;120.03;48.50;;;39.20;2201.60;;;;;;5035933;28;20160;-69
2022/01/13 03:05:39;;;;;;;91.07;43.40;;;39.20;2201.60;;;;;;5035447;28;20033;-76
2022/01/13 03:08:07;;;;;;;88.03;43.97;;;39.20;2201.60;;;;;;5035525;28;20478;-75
2022/01/13 03:10:33;;;;;;;89.77;42.70;;;39.20;2201.60;;;;;;5035445;28;20056;-68
2022/01/13 03:13:00;;;;;;;86.47;42.17;;;39.20;2201.60;;;;;;5035380;28;20506;-75
2022/01/13 03:15:26;;;;;;;83.37;42.83;;;39.20;2201.60;;;;;;5035391;28;20501;-75
2022/01/13 03:17:52;;;;;;;79.30;40.93;;;39.20;2201.60;;;;;;5035323;28;20033;-69
2022/01/13 03:20:19;;;;;;;87.37;42.73;;;39.20;2201.60;;;;;;5035262;28;20463;-71
2022/01/13 03:22:45;;;;;;;89.70;42.90;;;39.20;2201.60;;;;;;5034944;28;20046;-67
2022/01/13 03:25:12;;;;;;;91.43;43.20;;;39.20;2201.60;;;;;;5035229;28;20025;-75
2022/01/13 03:27:40;;;;;;;91.17;44.43;;;39.20;2201.60;;;;;;5034918;28;20037;-67
2022/01/13 03:30:09;;;;;;;84.27;41.23;;;39.20;2201.60;;;;;;5035127;28;20033;-68
2022/01/13 03:32:36;;;;;;;94.00;44.23;;;39.20;2201.60;;;;;;5035068;28;20063;-74
2022/01/13 03:35:05;;;;;;;102.27;50.40;;;39.20;2201.60;;;;;;5035012;28;20017;-68
2022/01/13 03:37:31;;;;;;;106.03;53.70;;;39.20;2201.60;;;;;;5034811;28;20109;-67
2022/01/13 03:39:58;;;;;;;106.90;52.17;;;39.20;2201.60;;;;;;5035195;28;20029;-68
2022/01/13 03:42:24;;;;;;;127.47;62.60;;;39.20;2201.60;;;;;;5034674;28;20030;-72
2022/01/13 03:44:50;;;;;;;116.43;55.80;;;39.20;2201.60;;;;;;5034941;28;20109;-75
2022/01/13 03:47:16;;;;;;;99.17;50.70;;;39.20;2201.60;;;;;;5034736;28;20069;-67
2022/01/13 03:49:43;;;;;;;90.70;45.07;;;39.20;2201.60;;;;;;5016826;28;20032;-67
2022/01/13 03:52:24;;;;;;;85.70;43.33;;;39.20;2201.60;;;;;;5034604;28;20044;-68
2022/01/13 03:55:31;;;;;;;84.50;40.97;;;39.20;2201.60;;;;;;5034634;28;20026;-74
2022/01/13 03:58:15;;;;;;;84.83;43.53;;;39.30;2201.60;;;;;;5006884;28;20433;-75
2022/01/13 04:01:02;;;;;;;84.77;42.03;;;39.30;2201.60;;;;;;5034543;28;20026;-68
2022/01/13 04:03:28;;;;;;;81.73;42.80;;;39.30;2201.60;;;;;;5034365;28;20025;-67
2022/01/13 04:06:37;;;;;;;92.97;45.93;;;39.30;2201.60;;;;;;5034640;28;20033;-68
2022/01/13 04:09:28;;;;;;;81.20;40.80;;;39.30;2201.60;;;;;;5034104;28;20386;-68
2022/01/13 04:11:54;;;;;;;96.03;51.07;;;39.30;2201.60;;;;;;5033783;28;20486;-68
2022/01/13 04:14:28;;;;;;;95.17;45.37;;;39.30;2201.60;;;;;;5034202;28;20028;-74
2022/01/13 04:16:55;;;;;;;85.53;43.17;;;39.30;2201.60;;;;;;5034162;28;20030;-68
2022/01/13 04:19:21;;;;;;;82.07;39.33;;;64.00;2201.60;;;;;;5034446;28;20072;-75
2022/01/13 04:21:47;;;;;;;89.77;47.03;;;39.30;2201.60;;;;;;5033936;28;20495;-67
2022/01/13 04:24:13;;;;;;;97.70;49.50;;;39.30;2201.60;;;;;;5016361;28;20025;-68
2022/01/13 04:26:43;;;;;;;79.20;41.93;;;39.30;2201.60;;;;;;5034283;28;20037;-75
2022/01/13 04:31:35;;;;;;;83.20;42.43;;;64.00;2201.60;;;;;;5034107;28;20029;-75
2022/01/13 04:34:01;;;;;;;85.83;44.57;;;64.00;2201.60;;;;;;5033918;28;20049;-67
2022/01/13 04:36:27;;;;;;;90.27;43.23;;;64.00;2201.60;;;;;;5033918;28;20026;-67
2022/01/13 04:38:53;;;;;;;80.67;41.03;;;64.00;2201.60;;;;;;5034143;28;20043;-68
2022/01/13 04:41:35;;;;;;;102.37;48.43;;;64.20;2201.60;;;;;;5033732;28;20112;-67
2022/01/13 04:44:08;;;;;;;97.70;48.10;;;64.20;2201.60;;;;;;5033768;28;20028;-75
2022/01/13 04:46:34;;;;;;;101.70;49.08;;;64.20;2201.60;;;;;;5034267;28;20025;-67
2022/01/13 04:49:00;;;;;;;97.17;49.43;;;;;;;;;;5033665;28;20493;-71
2022/01/13 04:51:27;;;;;;;100.93;51.93;;;;;;;;;;5033899;28;20032;-68
2022/01/13 04:53:53;;;;;;;104.83;51.53;;;;;;;;;;5033561;28;20092;-68
2022/01/13 04:56:37;;;;;;;102.27;50.80;;;;;;;;;;5033683;28;20030;-75
2022/01/13 04:59:03;;;;;;;108.82;52.65;;;;;;;;;;5033458;28;20025;-68
2022/01/13 05:01:30;;;;;;;115.57;53.60;;;;;;;;;;5033775;28;20032;-67
2022/01/13 05:03:56;;;;;;;137.53;65.27;;;;;;;;;;5033585;28;20025;-67
2022/01/13 05:06:23;;;;;;;148.60;67.43;;;;;;;;;;5033293;28;20045;-68
2022/01/13 05:08:49;;;;;;;142.43;65.83;;;;;;;;;;5033317;28;20032;-75
2022/01/13 05:11:16;;;;;;;141.93;61.47;;;;;;;;;;5033121;28;20040;-67
2022/01/13 05:13:43;;;;;;;140.43;61.63;;;;;;;;;;5033402;28;20100;-67
2022/01/13 05:16:46;;;;;;;125.33;55.70;;;;;;;;;;5033296;28;20032;-67
2022/01/13 05:19:10;;;;;;;127.37;57.43;;;;;;;;;;5032710;28;20540;-68
2022/01/13 05:24:21;;;;;;;112.93;50.97;;;;;;;;;;5033449;28;20382;-75
2022/01/13 05:26:48;;;;;;;105.27;49.97;;;;;;;;;;5033216;28;20111;-71
2022/01/13 05:29:18;;;;;;;107.30;51.80;;;;;;;;;;5033377;28;20022;-74
2022/01/13 05:31:45;;;;;;;122.70;52.97;;;;;;;;;;5033502;28;20033;-68
2022/01/13 05:34:11;;;;;;;143.73;61.97;;;;;;;;;;5033235;28;20029;-67
2022/01/13 05:36:37;;;;;;;159.43;67.83;;;;;;;;;;5033691;28;20030;-67
2022/01/13 05:39:03;;;;;;;164.23;70.83;;;;;;;;;;5033054;28;20037;-76
2022/01/13 05:41:31;;;;;;;190.87;77.67;;;;;;;;;;5015449;28;20116;-68
2022/01/13 05:43:57;;;;;;;187.93;76.60;;;;;;;;;;5033138;28;20025;-75
2022/01/13 05:46:23;;;;;;;189.37;83.00;;;;;;;;;;5015325;28;20087;-72
2022/01/13 05:48:50;;;;;;;158.77;71.37;;;;;;;;;;5033036;28;20021;-74
2022/01/13 05:51:16;;;;;;;140.80;63.80;;;;;;;;;;5032939;28;20470;-67
2022/01/13 05:53:42;;;;;;;134.60;62.87;;;;;;;;;;5033190;28;20037;-67
2022/01/13 05:56:09;;;;;;;132.20;63.60;;;;;;;;;;5033028;28;20032;-74
2022/01/13 05:58:35;;;;;;;154.17;74.60;;;;;;;;;;5033189;28;20025;-67
2022/01/13 06:01:01;;;;;;;160.57;74.80;;;;;;;;;;5032902;28;20022;-72
2022/01/13 06:03:28;;;;;;;143.30;69.10;;;;;;;;;;5032956;28;20032;-67
2022/01/13 06:05:54;;;;;;;124.53;59.10;;;;;;;;;;5032610;28;20072;-74
2022/01/13 06:08:20;;;;;;;116.20;56.07;;;;;;;;;;5032840;28;20040;-74
2022/01/13 06:10:46;;;;;;;167.40;73.63;;;;;;;;;;5032879;28;20025;-67
2022/01/13 06:13:13;;;;;;;133.90;63.50;;;;;;;;;;5032885;28;20113;-68
2022/01/13 06:15:39;;;;;;;132.53;69.00;;;;;;;;;;5032711;28;20505;-67
2022/01/13 06:18:11;;;;;;;124.50;61.30;;;;;;;;;;5032691;28;20030;-71
2022/01/13 06:20:39;;;;;;;127.83;60.97;;;90.30;2176.00;;;;;;5032702;28;20529;-74
2022/01/13 06:23:07;;;;;;;127.27;58.43;;;90.40;2176.00;;;;;;5035297;28;20088;-74
2022/01/13 06:25:36;;;;;;;135.40;63.00;;;90.40;2176.00;;;;;;5036520;28;20029;-68
2022/01/13 06:28:03;;;;;;;155.50;69.03;;;90.40;2176.00;;;;;;5036291;28;20033;-69
2022/01/13 06:30:30;;;;;;;141.40;65.67;;;90.40;2176.00;;;;;;5036469;28;20059;-71
2022/01/13 06:32:57;;;;;;;200.67;98.37;;;90.30;2176.00;;;;;;5036490;28;20433;-73
2022/01/13 06:35:23;;;;;;;194.93;96.87;;;90.30;2176.00;;;;;;5035957;28;20523;-74
2022/01/13 06:37:49;;;;;;;215.23;103.77;;;90.10;2176.00;;;;;;5036008;28;20021;-74
2022/01/13 06:40:15;;;;;;;238.57;113.60;;;90.10;2176.00;;;;;;5018260;28;20038;-74
2022/01/13 06:42:42;;;;;;;262.87;118.17;;;90.00;2176.00;;;;;;5035888;28;20029;-68
2022/01/13 06:45:10;;;;;;;228.40;105.73;;;90.10;2176.00;;;;;;5036304;28;20034;-68
2022/01/13 06:47:42;;;;;;;270.77;117.13;;;90.10;2176.00;;;;;;5035858;28;20041;-67
2022/01/13 06:50:09;;;;;;;286.73;126.60;;;90.10;2176.00;;;;;;5036144;28;20394;-67
2022/01/13 06:52:35;;;;;;;272.13;119.33;;;90.20;2176.00;;;;;;5035550;28;20060;-74
2022/01/13 06:55:01;;;;;;;284.70;124.33;;;90.10;2176.00;;;;;;5035706;28;20029;-72
2022/01/13 06:57:30;;;;;;;312.70;133.77;;;90.00;2176.00;;;;;;5035320;28;20033;-74
2022/01/13 06:59:56;;;;;;;314.83;131.33;;;89.90;2176.00;;;;;;5035499;28;20360;-73
2022/01/13 07:02:23;;;;;;;252.70;112.93;;;89.90;2176.00;;;;;;5035673;28;20029;-64
2022/01/13 07:04:49;;;;;;;281.43;119.93;;;89.90;2176.00;;;;;;5035429;28;20087;-73
2022/01/13 07:07:16;;;;;;;253.00;101.83;;;89.90;2176.00;;;;;;5035246;28;20045;-63
2022/01/13 07:09:42;;;;;;;211.87;84.73;;;90.00;2176.00;;;;;;5035521;28;20040;-63
2022/01/13 07:12:09;;;;;;;180.17;78.43;;;90.00;2176.00;;;;;;5035424;28;20037;-74
2022/01/13 07:14:35;;;;;;;151.20;65.47;;;90.00;2176.00;;;;;;5035436;28;20025;-63
2022/01/13 07:17:01;;;;;;;158.33;71.63;;;90.00;2176.00;;;;;;5017581;28;20064;-63
2022/01/13 07:19:27;;;;;;;142.37;68.50;;;89.90;2176.00;;;;;;5035243;28;20032;-65
2022/01/13 07:21:53;;;;;;;147.97;72.37;;;89.80;2176.00;;;;;;5034865;28;20053;-63
2022/01/13 07:24:18;;;;;;;143.83;67.80;;;89.70;2176.00;;;;;;5034254;28;20022;-65
2022/01/13 07:26:45;;;;;;;146.97;69.53;;;89.70;2176.00;;;;;;5036110;28;20044;-65
2022/01/13 07:29:11;;;;;;;161.17;75.73;;;89.60;2201.60;;;;;;5034908;28;20135;-70
2022/01/13 07:31:38;;;;;;;147.23;69.87;;;64.90;2201.60;;;;;;5034186;28;20497;-63
2022/01/13 07:34:05;;;;;;;164.30;80.67;;;64.90;2201.60;;;;;;5035178;28;20455;-63
2022/01/13 07:36:33;;;;;;;146.17;70.43;;;64.80;2201.60;;;;;;5034625;28;20037;-63
2022/01/13 07:38:59;;;;;;;154.10;75.00;;;64.70;2201.60;;;;;;5034467;28;20053;-67
2022/01/13 07:41:25;;;;;;;153.33;76.20;;;64.60;2201.60;;;;;;5034235;28;20057;-63
2022/01/13 07:43:54;;;;;;;146.70;69.07;;;64.50;2201.60;;;;;;5034878;28;20028;-64
2022/01/13 07:46:24;;;;;;;156.23;76.87;;;64.50;2201.60;;;;;;5034706;28;20034;-74
2022/01/13 07:48:50;;;;;;;159.73;76.20;;;64.40;2201.60;;;;;;5034808;28;20108;-73
2022/01/13 07:51:17;;;;;;;161.83;77.67;;;64.40;2201.60;;;;;;5034363;28;20021;-64
2022/01/13 07:53:44;;;;;;;149.87;74.17;;;64.40;2201.60;;;;;;5034471;28;20485;-63
2022/01/13 07:56:13;;;;;;;158.60;76.57;;;64.30;2201.60;;;;;;5034437;28;20184;-63
2022/01/13 07:58:40;;;;;;;145.00;70.57;;;64.30;2201.60;;;;;;5034952;28;20036;-74
2022/01/13 08:01:06;;;;;;;162.67;75.57;;;64.20;2201.60;;;;;;5034314;28;20025;-72
2022/01/13 08:03:33;;;;;;;150.87;71.43;;;64.20;2201.60;;;;;;5034412;28;20113;-73
2022/01/13 08:06:00;;;;;;;149.57;71.33;;;64.10;2201.60;;;;;;5016771;28;20478;-64
2022/01/13 08:08:26;;;;;;;138.17;64.67;;;64.00;2201.60;;;;;;5034233;28;20037;-64
2022/01/13 08:10:52;;;;;;;138.53;64.03;;;64.00;2201.60;;;;;;5016840;28;20029;-63
2022/01/13 08:13:18;;;;;;;154.80;68.70;;;64.00;2201.60;;;;;;5034178;28;20379;-63
2022/01/13 08:15:44;;;;;;;127.10;61.57;;;39.30;2201.60;;;;;;5034277;28;20049;-64
2022/01/13 08:20:55;;;;;;;155.20;74.60;;;39.20;2201.60;;;;;;5033404;28;20087;-64
2022/01/13 08:23:21;;;;;;;141.53;64.67;;;39.10;2201.60;;;;;;5033276;28;20152;-66
2022/01/13 08:25:47;;;;;;;235.80;95.67;;;39.10;2201.60;;;;;;5033711;28;20017;-68
2022/01/13 08:28:14;;;;;;;137.83;66.37;;;39.00;2201.60;;;;;;5033534;28;20025;-65
2022/01/13 08:30:40;;;;;;;150.37;68.10;;;39.00;2201.60;;;;;;5033950;28;20459;-71
2022/01/13 08:33:06;;;;;;;144.80;62.80;;;38.90;2201.60;;;;;;5032542;28;20040;-66
2022/01/13 08:35:32;;;;;;;117.63;53.43;;;38.90;2201.60;;;;;;5015827;28;20037;-64
2022/01/13 08:38:05;;;;;;;190.80;75.93;;;38.80;2201.60;;;;;;5015934;28;20022;-63
2022/01/13 08:40:34;;;;;;;181.87;73.53;;;38.70;2201.60;;;;;;5033593;28;20032;-64
2022/01/13 08:43:01;;;;;;;209.67;82.77;;;38.60;2201.60;;;;;;5033394;28;20262;-71
2022/01/13 08:45:28;;;;;;;154.27;66.13;;;;;;;;;;5032935;28;20147;-63
2022/01/13 08:47:54;;;;;;;119.13;55.37;;;;;;;;;;5033333;28;20041;-63
2022/01/13 08:50:20;;;;;;;138.50;63.70;;;;;;;;;;5033459;28;20025;-63
2022/01/13 08:52:46;;;;;;;172.23;71.13;;;38.40;2201.60;;;;;;5033091;28;20030;-64
2022/01/13 08:55:11;;;;;;;107.93;53.03;;;13.70;2201.60;;;;;;5033316;28;20108;-65
2022/01/13 08:57:37;;;;;;;92.20;48.37;;;13.70;2201.60;;;;;;5031462;28;20021;-64
2022/01/13 09:00:07;;;;;;;95.30;48.53;;;13.70;2201.60;;;;;;5032925;28;20033;-64
2022/01/13 09:02:33;;;;;;;118.37;63.03;;;13.70;2201.60;;;;;;5032798;28;20021;-63
2022/01/13 09:05:03;;;;;;;104.80;52.20;;;13.50;2201.60;;;;;;5033252;28;20029;-63
2022/01/13 09:07:29;;;;;;;105.97;54.70;;;13.30;2201.60;;;;;;5032579;28;20029;-64
2022/01/13 09:09:56;;;;;;;124.23;62.83;;;13.30;2201.60;;;;;;5032438;28;20486;-64
2022/01/13 09:12:22;;;;;;;90.83;46.67;;;13.00;2201.60;;;;;;5032887;28;20386;-63
2022/01/13 09:14:50;;;;;;;125.43;66.27;;;13.10;2201.60;;;;;;5032293;28;20026;-64
2022/01/13 09:17:22;;;;;;;122.60;65.13;;;12.90;2201.60;;;;;;5032155;28;20104;-64
2022/01/13 09:19:49;;;;;;;109.97;58.00;;;0.10;2201.60;;;;;;5032851;28;20466;-63
2022/01/13 09:22:15;;;;;;;109.37;55.10;;;0.30;2201.60;;;;;;5032734;28;20037;-68
2022/01/13 09:24:43;;;;;;;91.67;48.37;;;0.60;2201.60;;;;;;5032720;28;20052;-65
2022/01/13 09:27:09;;;;;;;110.60;56.90;;;0.50;2201.60;;;;;;5032791;28;20112;-71
2022/01/13 09:29:35;;;;;;;103.87;54.37;;;0.40;2201.60;;;;;;5033104;28;20121;-66
2022/01/13 09:32:01;;;;;;;101.47;54.30;;;0.50;2201.60;;;;;;5015078;28;20532;-72
2022/01/13 09:34:27;;;;;;;103.70;57.20;;;0.60;2201.60;;;;;;5032972;28;20060;-63
2022/01/13 09:36:54;;;;;;;90.87;45.00;;;;;;;;;;5032669;28;20458;-71
2022/01/13 09:39:19;;;;;;;101.63;52.30;;;25.60;2201.60;;;;;;5032793;28;20458;-71
2022/01/13 09:41:46;;;;;;;87.73;50.00;;;51.20;2227.20;;;;;;5032546;28;20060;-70
2022/01/13 09:44:15;;;;;;;88.33;50.33;;;51.80;2227.20;;;;;;5032625;28;20033;-65
2022/01/13 09:46:41;;;;;;;91.83;45.33;;;77.20;2201.60;;;;;;5032603;28;20041;-64
2022/01/13 09:49:08;;;;;;;77.13;44.03;;;77.10;2201.60;;;;;;5032604;28;20029;-71
2022/01/13 09:51:37;;;;;;;119.10;42.30;;;128.00;2022.40;;;;;;5032382;28;20025;-68
2022/01/13 09:54:04;;;;;;;96.07;46.17;;;103.00;1945.60;;;;;;5032019;28;20041;-65
2022/01/13 09:56:33;;;;;;;74.63;41.07;;;102.70;2022.40;;;;;;5032998;28;20060;-71
2022/01/13 09:58:59;;;;;;;73.10;35.47;;;102.60;2048.00;;;;;;5036381;28;20029;-72
2022/01/13 10:01:24;;;;;;;69.13;38.03;;;102.80;1996.80;;;;;;5036279;28;20087;-72
2022/01/13 10:03:50;;;;;;;76.43;40.17;;;102.40;2048.00;;;;;;5036523;28;20074;-72
2022/01/13 10:06:18;;;;;;;83.33;43.13;;;77.70;2073.60;;;;;;5036054;28;20120;-71
2022/01/13 10:08:56;;;;;;;75.83;37.77;;;102.70;2073.60;;;;;;5036451;28;20075;-66
2022/01/13 10:11:48;;;;;;;83.60;41.33;;;128.70;1894.40;;;;;;5036198;28;20078;-64
2022/01/13 10:17:02;;;;;;;75.17;40.23;;;230.40;1484.80;;;;;;5036081;28;20053;-66
2022/01/13 10:19:36;;;;;;;63.90;33.27;;;256.00;1408.00;;;;;;5036080;28;20014;-72
2022/01/13 10:22:09;;;;;;;62.13;30.90;;;256.80;1331.20;;;;;;5035891;28;20061;-71
2022/01/13 10:24:37;;;;;;;65.40;34.60;;;256.70;1331.20;;;;;;5036084;28;20031;-63
2022/01/13 10:27:15;;;;;;;74.13;39.83;;;256.80;1305.60;;;;;;5035482;28;20445;-70
2022/01/13 10:29:44;;;;;;;66.73;38.23;;;307.30;1254.40;;;;;;5035809;28;20040;-70
2022/01/13 10:32:12;;;;;;;82.37;33.60;;;333.70;1126.40;;;;;;5035801;28;20033;-71
2022/01/13 10:34:41;;;;;;;55.58;33.42;;;307.90;1177.60;;;;;;5035963;28;20099;-71
2022/01/13 10:37:13;;;;;;;56.42;34.05;;;282.00;1254.40;;;;;;5035653;28;20483;-70
2022/01/13 10:39:51;;;;;;;62.47;37.35;;;307.60;1228.80;;;;;;5035662;28;20439;-69
2022/01/13 10:45:22;;;;;;;59.97;36.35;;;256.80;1280.00;;;;;;5035537;28;20447;-72
2022/01/13 10:47:50;;;;;;;60.60;36.63;;;256.80;1280.00;;;;;;5035587;28;20038;-71
2022/01/13 10:50:17;;;;;;;62.92;37.35;;;256.40;1331.20;;;;;;5017820;28;20367;-67
2022/01/13 10:52:43;;;;;;;124.55;40.00;;;230.90;1331.20;;;;;;5035403;28;20478;-65
2022/01/13 10:55:19;;;;;;;65.75;37.92;;;205.30;1459.20;;;;;;5035320;28;20083;-71
2022/01/13 10:57:46;;;;;;;64.30;35.53;;;256.50;1305.60;;;;;;5035309;28;20022;-71
2022/01/13 11:00:19;;;;;;;60.90;34.37;;;230.80;1356.80;;;;;;5035324;28;20066;-64
2022/01/13 11:02:47;;;;;;;70.00;40.40;;;204.80;1510.40;;;;;;5035270;28;20022;-69
2022/01/13 11:05:13;;;;;;;66.87;32.07;;;205.00;1536.00;;;;;;5035507;28;20086;-71
2022/01/13 11:07:41;;;;;;;59.67;26.47;;;231.00;1382.40;;;;;;5033960;28;20436;-72
2022/01/13 11:10:08;;;;;;;60.63;27.10;;;307.20;1305.60;;;;;;5035072;28;20025;-71
2022/01/13 11:12:41;;;;;;;65.22;27.98;;;256.70;1305.60;;;;;;5035105;28;20496;-70
2022/01/13 11:15:12;;;;;;;54.92;24.23;;;205.50;1459.20;;;;;;4996878;28;20438;-72
2022/01/13 11:17:40;;;;;;;50.15;22.23;;;180.10;1561.60;;;;;;5015014;28;20161;-70
2022/01/13 11:20:09;;;;;;;59.38;34.10;;;154.10;1664.00;;;;;;5027017;28;20021;-72
2022/01/13 11:22:37;;;;;;;63.73;31.67;;;153.70;1740.80;;;;;;5033265;28;20546;-70
2022/01/13 11:25:06;;;;;;;56.10;26.03;;;128.90;1766.40;;;;;;5033180;28;20036;-72
2022/01/13 11:27:32;;;;;;;67.25;35.08;;;128.40;1868.80;;;;;;5030992;28;20052;-71
2022/01/13 11:29:59;;;;;;;57.50;25.60;;;128.10;1843.20;;;;;;5033368;28;20028;-71
2022/01/13 11:32:25;;;;;;;65.03;31.53;;;128.00;1868.80;;;;;;5033513;28;20053;-72
2022/01/13 11:34:52;;;;;;;68.53;34.00;;;103.10;1894.40;;;;;;5033560;28;20057;-64
2022/01/13 11:37:18;;;;;;;69.30;34.20;;;102.90;1920.00;;;;;;5016412;28;20028;-68
2022/01/13 11:39:45;;;;;;;73.80;30.80;;;102.80;1971.20;;;;;;5034078;28;20429;-64
2022/01/13 11:42:15;;;;;;;57.83;19.67;;;;;;;;;;5034132;28;20021;-72
2022/01/13 11:44:42;;;;;;;64.77;35.67;;;77.50;1996.80;;;;;;5033757;28;20040;-70
2022/01/13 11:47:25;;;;;;;65.80;35.33;;;77.50;2048.00;;;;;;5016941;28;20041;-71
2022/01/13 11:50:03;;;;;;;66.53;38.03;;;77.30;2073.60;;;;;;5034321;28;20026;-63
2022/01/13 11:52:47;;;;;;;84.13;45.90;;;77.30;2048.00;;;;;;5033491;28;20379;-71
2022/01/13 11:55:22;;;;;;;89.78;48.63;;;77.60;2073.60;;;;;;5034391;28;20474;-66
2022/01/13 11:57:49;;;;;;;162.50;55.73;;;102.40;2022.40;;;;;;5033258;28;20033;-71
2022/01/13 12:00:29;;;;;;;62.77;33.20;;;102.40;2022.40;;;;;;5033695;28;20119;-70
2022/01/13 12:02:56;;;;;;;69.70;36.83;;;77.60;2073.60;;;;;;5033997;28;20036;-63
2022/01/13 12:05:24;;;;;;;69.20;36.97;;;102.40;2048.00;;;;;;5032856;28;20091;-63
2022/01/13 12:07:56;;;;;;;68.70;36.33;;;102.70;2022.40;;;;;;5032919;28;20034;-72
2022/01/13 12:10:40;;;;;;;61.07;32.30;;;128.10;1971.20;;;;;;5033806;28;20025;-64
2022/01/13 12:13:37;;;;;;;62.13;34.23;;;154.00;1792.00;;;;;;5038322;28;20040;-70
2022/01/13 12:16:05;;;;;;;62.30;32.73;;;153.70;1792.00;;;;;;5013906;28;20036;-68
2022/01/13 12:18:43;;;;;;;65.70;33.67;;;154.10;1792.00;;;;;;5033679;28;20025;-65
2022/01/13 12:21:43;;;;;;;73.03;37.93;;;128.60;1817.60;;;;;;5033503;28;20041;-64
2022/01/13 12:24:18;;;;;;;66.50;36.80;;;128.80;1817.60;;;;;;5042691;28;20036;-72
2022/01/13 12:26:46;;;;;;;76.10;38.17;;;;;;;;;;5024289;28;20036;-72
2022/01/13 12:29:14;;;;;;;70.33;37.53;;;128.60;1843.20;;;;;;5024646;28;20049;-65
2022/01/13 12:31:56;;;;;;;61.83;34.57;;;128.50;1868.80;;;;;;5048079;28;20043;-66
2022/01/13 12:34:43;;;;;;;61.83;32.77;;;128.30;1868.80;;;;;;5053641;28;20116;-64
2022/01/13 12:37:15;;;;;;;47.33;19.93;;;128.50;1894.40;;;;;;5038323;28;20151;-73
2022/01/13 12:39:50;;;;;;;48.97;19.20;;;128.90;1843.20;;;;;;5041770;28;20037;-64
2022/01/13 12:42:27;;;;;;;73.83;31.17;;;128.40;1894.40;;;;;;5039986;28;20374;-72
2022/01/13 12:47:41;;;;;;;71.30;37.73;;;230.70;1484.80;;;;;;5029371;28;20064;-63